createdAt,value
2023-03-21T00:01:08.591Z,11.72
2023-03-21T00:03:37.934Z,11.60
2023-03-21T00:06:11.351Z,11.67
2023-03-21T00:08:40.592Z,11.55
2023-03-21T00:11:11.026Z,11.68
2023-03-21T00:13:42.310Z,11.54
2023-03-21T00:16:20.977Z,11.59
2023-03-21T00:18:55.977Z,11.48
2023-03-21T00:22:05.493Z,11.64
2023-03-21T00:24:20.993Z,11.54
2023-03-21T00:26:49.423Z,11.55
2023-03-21T00:29:18.017Z,11.54
2023-03-21T00:31:48.294Z,11.60
2023-03-21T00:34:20.150Z,11.65
2023-03-21T00:36:57.424Z,11.67
2023-03-21T00:39:25.984Z,11.66
2023-03-21T00:41:54.409Z,11.52
2023-03-21T00:44:23.541Z,11.65
2023-03-21T00:47:06.344Z,11.64
2023-03-21T00:49:38.172Z,11.58
2023-03-21T00:52:24.761Z,11.61
2023-03-21T00:54:59.526Z,11.68
2023-03-21T00:57:38.583Z,11.70
2023-03-21T01:00:10.930Z,11.74
2023-03-21T01:02:43.454Z,11.78
2023-03-21T01:05:23.242Z,11.73
2023-03-21T01:07:53.366Z,11.76
2023-03-21T01:10:23.562Z,11.76
2023-03-21T01:12:51.996Z,11.79
2023-03-21T01:15:20.707Z,11.78
2023-03-21T01:17:49.011Z,11.78
2023-03-21T01:20:17.531Z,11.76
2023-03-21T01:22:45.928Z,11.72
2023-03-21T01:25:22.425Z,11.73
2023-03-21T01:27:51.598Z,11.92
2023-03-21T01:30:23.917Z,11.86
2023-03-21T01:32:53.578Z,11.78
2023-03-21T01:35:23.013Z,11.78
2023-03-21T01:37:51.807Z,11.85
2023-03-21T01:40:25.849Z,11.79
2023-03-21T01:43:01.737Z,11.72
2023-03-21T01:46:37.217Z,11.80
2023-03-21T01:49:26.165Z,11.78
2023-03-21T01:52:14.001Z,11.75
2023-03-21T01:54:47.696Z,11.74
2023-03-21T01:57:25.891Z,11.66
2023-03-21T01:59:56.459Z,11.66
2023-03-21T02:02:29.153Z,11.72
2023-03-21T02:05:07.435Z,11.71
2023-03-21T02:07:41.864Z,11.68
2023-03-21T02:10:13.840Z,11.73
2023-03-21T02:12:47.848Z,11.62
2023-03-21T02:15:17.140Z,11.78
2023-03-21T02:18:08.540Z,11.82
2023-03-21T02:21:20.235Z,11.87
2023-03-21T02:24:54.602Z,11.89
2023-03-21T02:27:30.848Z,11.73
2023-03-21T02:30:52.071Z,11.94
2023-03-21T02:34:02.228Z,11.87
2023-03-21T02:37:03.786Z,11.77
2023-03-21T02:39:48.021Z,11.55
2023-03-21T02:42:21.712Z,11.70
2023-03-21T02:45:00.788Z,11.69
2023-03-21T02:47:35.224Z,11.65
2023-03-21T02:50:13.147Z,11.62
2023-03-21T02:52:47.094Z,11.59
2023-03-21T02:55:21.108Z,11.61
2023-03-21T02:58:11.676Z,11.60
2023-03-21T03:00:45.322Z,11.74
2023-03-21T03:03:31.478Z,11.73
2023-03-21T03:06:04.274Z,11.83
2023-03-21T03:08:56.095Z,11.86
2023-03-21T03:11:31.382Z,11.71
2023-03-21T03:14:39.985Z,11.87
2023-03-21T03:17:23.600Z,11.87
2023-03-21T03:20:17.510Z,11.93
2023-03-21T03:22:58.234Z,11.67
2023-03-21T03:25:42.536Z,11.96
2023-03-21T03:28:16.632Z,11.93
2023-03-21T03:31:00.773Z,12.04
2023-03-21T03:33:42.362Z,12.03
2023-03-21T03:36:28.694Z,12.11
2023-03-21T03:38:59.683Z,12.08
2023-03-21T03:41:36.568Z,12.08
2023-03-21T03:44:19.261Z,12.07
2023-03-21T03:47:01.052Z,11.98
2023-03-21T03:49:33.904Z,12.07
2023-03-21T03:52:12.451Z,12.10
2023-03-21T03:54:50.986Z,12.09
2023-03-21T03:57:22.191Z,12.11
2023-03-21T03:59:50.898Z,12.13
2023-03-21T04:02:20.432Z,12.12
2023-03-21T04:04:53.413Z,12.11
2023-03-21T04:07:23.106Z,12.06
2023-03-21T04:09:53.925Z,12.08
2023-03-21T04:12:24.070Z,12.08
2023-03-21T04:15:13.232Z,12.10
2023-03-21T04:17:47.264Z,12.15
2023-03-21T04:20:23.790Z,12.07
2023-03-21T04:23:03.170Z,12.18
2023-03-21T04:25:35.013Z,12.16
2023-03-21T04:28:07.449Z,12.12
2023-03-21T04:31:00.427Z,12.21
2023-03-21T04:33:32.412Z,12.23
2023-03-21T04:36:01.151Z,12.27
2023-03-21T04:38:33.924Z,12.17
2023-03-21T04:41:05.302Z,12.17
2023-03-21T04:43:34.961Z,12.20
2023-03-21T04:46:04.061Z,12.22
2023-03-21T04:48:32.524Z,12.23
2023-03-21T04:51:02.283Z,12.22
2023-03-21T04:53:30.569Z,12.16
2023-03-21T04:55:59.016Z,12.14
2023-03-21T04:58:27.505Z,12.18
2023-03-21T05:00:57.353Z,12.10
2023-03-21T05:03:25.748Z,12.13
2023-03-21T05:05:53.963Z,12.00
2023-03-21T05:08:23.607Z,12.00
2023-03-21T05:10:52.226Z,12.09
2023-03-21T05:13:21.890Z,12.12
2023-03-21T05:15:50.856Z,12.13
2023-03-21T05:18:24.774Z,12.16
2023-03-21T05:21:13.455Z,12.19
2023-03-21T05:23:42.266Z,12.20
2023-03-21T05:26:11.869Z,12.15
2023-03-21T05:28:48.097Z,12.21
2023-03-21T05:31:17.198Z,12.18
2023-03-21T05:33:49.476Z,12.15
2023-03-21T05:36:20.396Z,12.21
2023-03-21T05:38:48.970Z,12.25
2023-03-21T05:41:19.391Z,12.19
2023-03-21T05:43:48.520Z,12.28
2023-03-21T05:46:17.513Z,12.30
2023-03-21T05:48:47.983Z,12.26
2023-03-21T05:51:19.991Z,12.25
2023-03-21T05:53:48.576Z,12.20
2023-03-21T05:56:17.837Z,12.20
2023-03-21T05:59:06.454Z,12.19
2023-03-21T06:01:40.473Z,12.25
2023-03-21T06:04:15.782Z,12.15
2023-03-21T06:06:44.967Z,12.11
2023-03-21T06:09:14.361Z,12.11
2023-03-21T06:11:51.295Z,12.14
2023-03-21T06:14:26.941Z,12.16
2023-03-21T06:17:15.955Z,12.15
2023-03-21T06:19:51.312Z,11.94
2023-03-21T06:22:25.158Z,12.09
2023-03-21T06:24:53.837Z,12.14
2023-03-21T06:27:22.239Z,12.14
2023-03-21T06:29:57.998Z,12.19
2023-03-21T06:32:26.925Z,12.10
2023-03-21T06:35:01.060Z,11.94
2023-03-21T06:37:29.512Z,12.02
2023-03-21T06:39:58.115Z,12.03
2023-03-21T06:42:27.030Z,12.02
2023-03-21T06:45:01.121Z,11.94
2023-03-21T06:47:30.415Z,11.98
2023-03-21T06:50:00.174Z,11.99
2023-03-21T06:52:28.779Z,11.93
2023-03-21T06:54:57.160Z,11.85
2023-03-21T06:57:25.485Z,11.70
2023-03-21T06:59:54.168Z,11.83
2023-03-21T07:02:25.239Z,11.81
2023-03-21T07:05:10.689Z,11.79
2023-03-21T07:07:39.263Z,11.85
2023-03-21T07:10:11.437Z,11.94
2023-03-21T07:13:09.078Z,11.97
2023-03-21T07:15:45.586Z,11.91
2023-03-21T07:18:14.389Z,11.90
2023-03-21T07:20:50.943Z,11.88
2023-03-21T07:23:20.457Z,11.99
2023-03-21T07:25:50.084Z,11.70
2023-03-21T07:28:19.519Z,11.68
2023-03-21T07:30:56.374Z,11.60
2023-03-21T07:33:26.747Z,11.61
2023-03-21T07:36:01.687Z,11.55
2023-03-21T07:38:31.428Z,11.65
2023-03-21T07:41:01.489Z,11.62
2023-03-21T07:43:33.137Z,11.62
2023-03-21T07:46:01.932Z,11.59
2023-03-21T07:48:30.720Z,11.52
2023-03-21T07:51:02.285Z,11.27
2023-03-21T07:53:30.746Z,11.60
2023-03-21T07:55:59.110Z,11.48
2023-03-21T07:58:28.551Z,11.53
2023-03-21T08:00:57.271Z,11.56
2023-03-21T08:03:26.402Z,11.45
2023-03-21T08:05:54.775Z,11.56
2023-03-21T08:08:24.447Z,11.57
2023-03-21T08:10:52.752Z,11.66
2023-03-21T08:13:21.070Z,11.62
2023-03-21T08:15:49.384Z,11.68
2023-03-21T08:18:17.692Z,11.77
2023-03-21T08:20:46.098Z,11.85
2023-03-21T08:23:14.789Z,11.85
2023-03-21T08:25:44.616Z,11.86
2023-03-21T08:28:13.010Z,11.84
2023-03-21T08:30:41.350Z,11.91
2023-03-21T08:33:09.770Z,11.98
2023-03-21T08:35:40.911Z,11.98
2023-03-21T08:38:10.058Z,12.12
2023-03-21T08:40:39.071Z,12.16
2023-03-21T08:43:08.983Z,12.22
2023-03-21T08:45:37.553Z,12.32
2023-03-21T08:48:06.777Z,12.36
2023-03-21T08:50:36.040Z,12.32
2023-03-21T08:53:04.633Z,12.42
2023-03-21T08:55:33.247Z,12.53
2023-03-21T08:58:01.984Z,12.57
2023-03-21T09:00:32.344Z,12.64
2023-03-21T09:03:01.560Z,12.78
2023-03-21T09:05:29.938Z,12.85
2023-03-21T09:07:58.316Z,12.89
2023-03-21T09:10:26.763Z,13.00
2023-03-21T09:12:56.570Z,12.90
2023-03-21T09:15:28.748Z,13.11
2023-03-21T09:18:12.969Z,13.08
2023-03-21T09:20:43.135Z,13.19
2023-03-21T09:23:13.169Z,13.21
2023-03-21T09:25:42.304Z,13.26
2023-03-21T09:28:10.713Z,13.34
2023-03-21T09:30:39.519Z,13.30
2023-03-21T09:33:13.083Z,13.21
2023-03-21T09:35:42.860Z,12.77
2023-03-21T09:38:11.188Z,13.23
2023-03-21T09:40:59.481Z,13.26
2023-03-21T09:43:42.548Z,13.29
2023-03-21T09:46:18.876Z,13.37
2023-03-21T09:48:57.868Z,13.32
2023-03-21T09:51:31.697Z,13.43
2023-03-21T09:54:04.929Z,13.38
2023-03-21T09:56:33.566Z,13.28
2023-03-21T09:59:03.742Z,13.39
2023-03-21T10:01:35.196Z,13.35
2023-03-21T10:04:08.025Z,13.37
2023-03-21T10:06:41.192Z,13.32
2023-03-21T10:09:15.830Z,13.29
2023-03-21T10:11:48.749Z,13.30
2023-03-21T10:14:22.725Z,13.24
2023-03-21T10:16:53.868Z,13.37
2023-03-21T10:19:23.655Z,13.29
2023-03-21T10:22:03.131Z,13.34
2023-03-21T10:24:35.348Z,13.28
2023-03-21T10:27:05.598Z,13.23
2023-03-21T10:29:42.233Z,13.22
2023-03-21T10:32:13.164Z,13.29
2023-03-21T10:34:46.346Z,13.21
2023-03-21T10:37:17.019Z,13.13
2023-03-21T10:39:46.619Z,13.09
2023-03-21T10:42:21.907Z,13.12
2023-03-21T10:44:52.833Z,13.20
2023-03-21T10:47:24.342Z,13.28
2023-03-21T10:50:11.018Z,13.27
2023-03-21T10:52:48.237Z,13.17
2023-03-21T10:55:24.405Z,13.30
2023-03-21T10:57:59.014Z,13.52
2023-03-21T11:00:31.806Z,13.55
2023-03-21T11:03:00.968Z,13.48
2023-03-21T11:05:39.364Z,13.49
2023-03-21T11:08:13.771Z,13.44
2023-03-21T11:10:54.608Z,13.48
2023-03-21T11:13:26.815Z,13.48
2023-03-21T11:15:58.222Z,13.36
2023-03-21T11:18:28.476Z,13.40
2023-03-21T11:21:03.535Z,13.41
2023-03-21T11:23:34.449Z,13.41
2023-03-21T11:26:04.305Z,13.40
2023-03-21T11:28:38.005Z,13.38
2023-03-21T11:31:09.200Z,13.36
2023-03-21T11:33:41.359Z,13.42
2023-03-21T11:36:33.754Z,13.48
2023-03-21T11:39:16.306Z,13.70
2023-03-21T11:41:49.227Z,13.82
2023-03-21T11:44:30.586Z,14.07
2023-03-21T11:46:59.363Z,14.07
2023-03-21T11:49:28.732Z,14.13
2023-03-21T11:52:15.159Z,14.22
2023-03-21T11:55:07.517Z,14.43
2023-03-21T11:57:45.859Z,14.56
2023-03-21T12:00:22.546Z,14.38
2023-03-21T12:03:47.787Z,14.09
2023-03-21T12:06:26.677Z,13.97
2023-03-21T12:09:24.316Z,14.06
2023-03-21T12:12:06.184Z,14.11
2023-03-21T12:14:45.240Z,14.14
2023-03-21T12:17:31.875Z,14.24
2023-03-21T12:20:31.720Z,14.06
2023-03-21T12:23:48.472Z,14.07
2023-03-21T12:26:27.176Z,14.12
2023-03-21T12:29:27.270Z,14.13
2023-03-21T12:32:21.045Z,14.34
2023-03-21T12:35:17.618Z,14.24
2023-03-21T12:37:59.293Z,14.18
2023-03-21T12:40:50.910Z,14.31
2023-03-21T12:43:42.437Z,14.32
2023-03-21T12:46:18.154Z,14.42
2023-03-21T12:48:51.309Z,14.41
2023-03-21T12:51:25.019Z,14.34
2023-03-21T12:54:02.018Z,14.53
2023-03-21T12:56:35.189Z,14.44
2023-03-21T12:59:19.360Z,14.28
2023-03-21T13:01:49.202Z,14.22
2023-03-21T13:04:38.121Z,14.21
2023-03-21T13:07:11.533Z,14.19
2023-03-21T13:09:42.464Z,14.16
2023-03-21T13:12:42.360Z,14.05
2023-03-21T13:15:40.571Z,14.17
2023-03-21T13:18:22.202Z,14.17
2023-03-21T13:20:54.710Z,14.09
2023-03-21T13:23:24.926Z,14.02
2023-03-21T13:25:56.298Z,14.01
2023-03-21T13:28:29.318Z,14.01
2023-03-21T13:31:19.661Z,13.87
2023-03-21T13:33:49.884Z,14.00
2023-03-21T13:36:27.595Z,13.96
2023-03-21T13:39:04.038Z,14.06
2023-03-21T13:41:36.395Z,14.01
2023-03-21T13:44:20.980Z,14.02
2023-03-21T13:46:57.240Z,13.92
2023-03-21T13:49:32.724Z,14.18
2023-03-21T13:52:03.103Z,14.16
2023-03-21T13:54:51.053Z,14.11
2023-03-21T13:57:39.982Z,14.15
2023-03-21T14:00:30.061Z,14.08
2023-03-21T14:03:06.850Z,14.07
2023-03-21T14:05:37.576Z,13.95
2023-03-21T14:08:15.715Z,14.05
2023-03-21T14:10:50.097Z,14.14
2023-03-21T14:13:22.459Z,14.01
2023-03-21T14:15:56.857Z,13.85
2023-03-21T14:18:53.012Z,14.00
2023-03-21T14:21:24.235Z,14.05
2023-03-21T14:24:01.987Z,14.03
2023-03-21T14:26:34.321Z,13.94
2023-03-21T14:29:12.419Z,13.87
2023-03-21T14:31:49.454Z,13.94
2023-03-21T14:34:19.898Z,13.89
2023-03-21T14:36:56.917Z,13.93
2023-03-21T14:39:30.729Z,13.86
2023-03-21T14:42:04.996Z,13.87
2023-03-21T14:44:53.391Z,13.95
2023-03-21T14:47:25.178Z,13.91
2023-03-21T14:49:55.456Z,13.90
2023-03-21T14:52:26.991Z,13.93
2023-03-21T14:54:56.896Z,13.83
2023-03-21T14:57:30.407Z,13.68
2023-03-21T15:00:04.691Z,13.75
2023-03-21T15:02:36.630Z,13.82
2023-03-21T15:05:15.546Z,13.85
2023-03-21T15:07:43.869Z,13.78
2023-03-21T15:10:18.328Z,13.70
2023-03-21T15:12:55.321Z,13.82
2023-03-21T15:15:27.386Z,13.87
2023-03-21T15:18:07.160Z,13.94
2023-03-21T15:20:39.570Z,14.04
2023-03-21T15:23:12.993Z,14.07
2023-03-21T15:25:42.115Z,14.00
2023-03-21T15:28:14.836Z,14.05
2023-03-21T15:30:50.264Z,14.07
2023-03-21T15:33:19.973Z,14.16
2023-03-21T15:35:55.554Z,14.11
2023-03-21T15:38:30.599Z,14.05
2023-03-21T15:41:28.053Z,14.08
2023-03-21T15:44:05.205Z,14.08
2023-03-21T15:46:42.247Z,14.05
2023-03-21T15:49:18.863Z,14.00
2023-03-21T15:51:53.333Z,13.97
2023-03-21T15:54:27.168Z,13.90
2023-03-21T15:56:57.658Z,13.90
2023-03-21T15:59:29.885Z,13.96
2023-03-21T16:01:58.388Z,13.87
2023-03-21T16:04:27.006Z,13.97
2023-03-21T16:07:02.218Z,14.01
2023-03-21T16:09:42.883Z,14.04
2023-03-21T16:12:13.906Z,13.95
2023-03-21T16:14:42.984Z,13.99
2023-03-21T16:17:37.548Z,14.00
2023-03-21T16:20:14.805Z,14.08
2023-03-21T16:22:44.539Z,14.04
2023-03-21T16:25:12.869Z,14.03
2023-03-21T16:27:41.227Z,14.04
2023-03-21T16:30:13.328Z,14.06
2023-03-21T16:32:41.754Z,13.96
2023-03-21T16:35:11.224Z,13.91
2023-03-21T16:37:39.957Z,13.76
2023-03-21T16:40:20.177Z,13.61
2023-03-21T16:42:48.530Z,13.80
2023-03-21T16:45:16.993Z,13.75
2023-03-21T16:47:45.773Z,13.81
2023-03-21T16:50:27.789Z,13.82
2023-03-21T16:52:57.557Z,13.68
2023-03-21T16:55:27.861Z,13.61
2023-03-21T16:57:57.432Z,13.76
2023-03-21T17:00:30.773Z,13.68
2023-03-21T17:03:03.685Z,13.64
2023-03-21T17:05:32.846Z,13.57
2023-03-21T17:08:04.187Z,13.65
2023-03-21T17:10:34.568Z,13.69
2023-03-21T17:13:03.125Z,13.64
2023-03-21T17:15:31.452Z,13.61
2023-03-21T17:17:59.901Z,13.66
2023-03-21T17:20:32.653Z,13.64
2023-03-21T17:23:01.798Z,13.54
2023-03-21T17:25:30.422Z,13.66
2023-03-21T17:28:01.066Z,13.59
2023-03-21T17:30:32.395Z,13.51
2023-03-21T17:33:01.264Z,13.46
2023-03-21T17:35:30.643Z,13.55
2023-03-21T17:38:00.453Z,13.42
2023-03-21T17:40:32.069Z,13.44
2023-03-21T17:43:02.051Z,13.43
2023-03-21T17:45:30.718Z,13.39
2023-03-21T17:47:59.136Z,13.27
2023-03-21T17:50:34.248Z,13.09
2023-03-21T17:53:02.542Z,13.32
2023-03-21T17:55:31.454Z,13.35
2023-03-21T17:58:01.350Z,13.24
2023-03-21T18:00:31.420Z,13.10
2023-03-21T18:03:00.231Z,13.25
2023-03-21T18:05:28.650Z,13.26
2023-03-21T18:08:13.054Z,13.26
2023-03-21T18:10:42.834Z,13.22
2023-03-21T18:13:12.629Z,13.23
2023-03-21T18:15:44.082Z,13.01
2023-03-21T18:18:13.228Z,13.08
2023-03-21T18:20:51.697Z,13.10
2023-03-21T18:23:21.072Z,13.03
2023-03-21T18:25:49.860Z,12.90
2023-03-21T18:28:21.325Z,13.00
2023-03-21T18:31:09.520Z,12.91
2023-03-21T18:33:40.355Z,12.80
2023-03-21T18:36:10.833Z,12.88
2023-03-21T18:38:40.045Z,12.89
2023-03-21T18:41:09.395Z,12.87
2023-03-21T18:44:05.371Z,12.80
2023-03-21T18:46:30.384Z,12.85
2023-03-21T18:48:58.782Z,12.89
2023-03-21T18:51:27.150Z,12.86
2023-03-21T18:53:55.714Z,12.84
2023-03-21T18:59:14.222Z,12.70
2023-03-21T19:01:42.774Z,12.67
2023-03-21T19:04:23.039Z,12.78
2023-03-21T19:06:54.262Z,12.77
2023-03-21T19:09:29.469Z,12.79
2023-03-21T19:11:59.249Z,12.86
2023-03-21T19:14:29.406Z,12.76
2023-03-21T19:17:55.771Z,12.82
2023-03-21T19:19:47.868Z,12.78
2023-03-21T19:22:16.961Z,12.73
2023-03-21T19:24:45.983Z,12.74
2023-03-21T19:27:14.648Z,12.73
2023-03-21T19:29:56.995Z,12.65
2023-03-21T19:32:31.476Z,12.73
2023-03-21T19:35:00.063Z,12.72
2023-03-21T19:37:29.295Z,12.71
2023-03-21T19:39:57.828Z,12.83
2023-03-21T19:42:28.663Z,12.84
2023-03-21T19:45:00.387Z,12.88
2023-03-21T19:47:28.717Z,12.85
2023-03-21T19:52:46.180Z,12.78
2023-03-21T19:55:15.449Z,12.70
2023-03-21T19:57:43.829Z,12.73
2023-03-21T20:00:15.600Z,12.72
2023-03-21T20:02:45.258Z,12.76
2023-03-21T20:05:14.817Z,12.73
2023-03-21T20:07:43.145Z,12.72
2023-03-21T20:10:12.068Z,12.66
2023-03-21T20:12:40.434Z,12.66
2023-03-21T20:15:17.729Z,12.62
2023-03-21T20:17:50.736Z,12.65
2023-03-21T20:20:19.933Z,12.63
2023-03-21T20:23:10.921Z,12.58
2023-03-21T20:25:43.773Z,12.55
2023-03-21T20:28:17.259Z,12.47
2023-03-21T20:30:54.083Z,12.52
2023-03-21T20:33:23.964Z,12.48
2023-03-21T20:36:37.768Z,12.52
2023-03-21T20:38:47.451Z,12.52
2023-03-21T20:41:15.874Z,12.54
2023-03-21T20:44:34.661Z,12.56
2023-03-21T20:46:32.599Z,12.52
2023-03-21T20:49:02.247Z,12.55
2023-03-21T20:52:40.827Z,12.43
2023-03-21T20:54:19.137Z,12.45
2023-03-21T20:56:47.831Z,12.42
2023-03-21T20:59:24.939Z,12.38
2023-03-21T21:01:55.857Z,12.42
2023-03-21T21:04:46.685Z,12.50
2023-03-21T21:07:18.364Z,12.41
2023-03-21T21:09:47.120Z,12.40
2023-03-21T21:12:19.102Z,12.32
2023-03-21T21:14:48.299Z,12.29
2023-03-21T21:20:17.148Z,12.30
2023-03-21T21:22:58.535Z,12.31
2023-03-21T21:25:28.941Z,12.25
2023-03-21T21:27:57.384Z,12.18
2023-03-21T21:30:26.083Z,12.06
2023-03-21T21:32:54.400Z,12.25
2023-03-21T21:35:24.083Z,12.27
2023-03-21T21:37:52.464Z,12.26
2023-03-21T21:40:23.465Z,12.19
2023-03-21T21:42:51.933Z,12.20
2023-03-21T21:45:20.718Z,12.14
2023-03-21T21:47:49.223Z,12.16
2023-03-21T21:50:17.624Z,12.12
2023-03-21T21:52:52.560Z,12.14
2023-03-21T21:55:22.424Z,12.15
2023-03-21T21:57:53.062Z,12.14
2023-03-21T22:00:21.480Z,12.06
2023-03-21T22:02:49.932Z,12.06
2023-03-21T22:05:19.365Z,11.91
2023-03-21T22:07:51.865Z,12.04
2023-03-21T22:10:21.488Z,12.06
2023-03-21T22:12:50.065Z,12.04
2023-03-21T22:15:19.164Z,12.08
2023-03-21T22:17:47.463Z,12.11
2023-03-21T22:20:17.996Z,12.08
2023-03-21T22:22:48.282Z,12.05
2023-03-21T22:25:18.184Z,12.09
2023-03-21T22:27:47.194Z,12.06
2023-03-21T22:30:17.674Z,12.07
2023-03-21T22:32:56.455Z,12.06
2023-03-21T22:35:32.031Z,12.00
2023-03-21T22:38:01.715Z,11.99
2023-03-21T22:40:30.067Z,12.02
2023-03-21T22:42:58.504Z,11.98
2023-03-21T22:45:26.931Z,12.07
2023-03-21T22:47:55.412Z,11.96
2023-03-21T22:50:23.779Z,11.97
2023-03-21T22:52:52.025Z,11.90
2023-03-21T22:55:21.720Z,11.91
2023-03-21T22:57:50.039Z,11.84
2023-03-21T23:00:20.079Z,11.98
2023-03-21T23:02:48.477Z,11.97
2023-03-21T23:05:16.849Z,12.00
2023-03-21T23:07:45.196Z,11.99
2023-03-21T23:10:13.618Z,12.05
2023-03-21T23:12:43.450Z,12.00
2023-03-21T23:15:12.760Z,11.97
2023-03-21T23:17:41.055Z,12.02
2023-03-21T23:20:10.908Z,11.89
2023-03-21T23:22:39.617Z,11.91
2023-03-21T23:25:09.262Z,11.97
2023-03-21T23:27:38.209Z,11.92
2023-03-21T23:30:09.476Z,12.01
2023-03-21T23:32:37.783Z,11.90
2023-03-21T23:35:07.497Z,12.00
2023-03-21T23:37:35.825Z,12.03
2023-03-21T23:40:06.185Z,12.03
2023-03-21T23:42:35.877Z,12.00
2023-03-21T23:45:04.398Z,11.98
2023-03-21T23:47:34.100Z,11.74
2023-03-21T23:50:02.379Z,11.98
2023-03-21T23:52:30.761Z,12.03
2023-03-21T23:54:59.269Z,11.98
2023-03-21T23:57:28.163Z,11.98
2023-03-21T23:59:56.779Z,11.91
